createdAt,value
2022-12-01T00:01:49.766Z,115.97
2022-12-01T00:04:39.213Z,114.72
2022-12-01T00:07:29.961Z,115.47
2022-12-01T00:10:27.502Z,117.18
2022-12-01T00:13:17.027Z,124.15
2022-12-01T00:16:13.687Z,129.00
2022-12-01T00:19:03.036Z,125.13
2022-12-01T00:21:52.399Z,126.97
2022-12-01T00:24:43.143Z,129.68
2022-12-01T00:27:32.385Z,128.85
2022-12-01T00:30:23.646Z,134.80
2022-12-01T00:33:12.900Z,136.45
2022-12-01T00:36:02.437Z,132.40
2022-12-01T00:38:54.791Z,125.63
2022-12-01T00:41:45.497Z,121.67
2022-12-01T00:44:34.815Z,115.63
2022-12-01T00:47:24.331Z,107.75
2022-12-01T00:50:13.846Z,103.22
2022-12-01T00:53:03.694Z,98.90
2022-12-01T00:55:54.062Z,110.53
2022-12-01T00:58:44.826Z,86.68
2022-12-01T01:01:34.951Z,88.05
2022-12-01T01:04:24.631Z,75.85
2022-12-01T01:07:13.855Z,45.10
2022-12-01T01:10:03.299Z,40.25
2022-12-01T01:12:52.546Z,34.63
2022-12-01T01:15:43.715Z,24.85
2022-12-01T01:18:33.718Z,38.42
2022-12-01T01:21:24.174Z,38.50
2022-12-01T01:24:13.657Z,55.45
2022-12-01T01:27:02.929Z,50.17
2022-12-01T01:29:52.231Z,47.58
2022-12-01T01:32:43.146Z,62.55
2022-12-01T01:35:32.382Z,50.13
2022-12-01T01:38:21.703Z,50.67
2022-12-01T01:41:12.001Z,45.33
2022-12-01T01:44:05.139Z,45.25
2022-12-01T01:49:48.623Z,42.45
2022-12-01T01:52:43.182Z,59.30
2022-12-01T01:55:35.145Z,88.38
2022-12-01T01:58:25.372Z,113.00
2022-12-01T02:01:14.813Z,115.75
2022-12-01T02:04:05.370Z,124.43
2022-12-01T02:06:56.865Z,111.95
2022-12-01T02:09:46.782Z,110.93
2022-12-01T02:12:54.867Z,107.40
2022-12-01T02:15:51.160Z,96.72
2022-12-01T02:18:51.174Z,93.30
2022-12-01T02:22:00.875Z,91.25
2022-12-01T02:25:08.458Z,94.05
2022-12-01T02:28:27.478Z,87.68
2022-12-01T02:31:24.074Z,86.93
2022-12-01T02:34:21.759Z,86.30
2022-12-01T02:37:22.296Z,89.55
2022-12-01T02:40:20.328Z,86.15
2022-12-01T02:43:19.266Z,78.60
2022-12-01T02:46:15.341Z,75.45
2022-12-01T02:49:12.973Z,74.85
2022-12-01T02:52:04.060Z,68.90
2022-12-01T02:54:54.435Z,71.15
2022-12-01T02:57:43.719Z,68.57
2022-12-01T03:00:33.351Z,62.00
2022-12-01T03:03:40.053Z,70.00
2022-12-01T03:06:44.245Z,72.30
2022-12-01T03:09:46.713Z,71.70
2022-12-01T03:12:46.874Z,65.80
2022-12-01T03:15:46.919Z,65.97
2022-12-01T03:18:40.548Z,61.95
2022-12-01T03:21:40.701Z,65.88
2022-12-01T03:24:33.141Z,66.05
2022-12-01T03:27:29.112Z,67.80
2022-12-01T03:30:19.285Z,64.72
2022-12-01T03:33:15.799Z,72.00
2022-12-01T03:36:12.192Z,67.65
2022-12-01T03:39:08.792Z,67.38
2022-12-01T03:42:05.185Z,65.57
2022-12-01T03:45:00.023Z,66.15
2022-12-01T03:47:49.403Z,71.70
2022-12-01T03:50:48.019Z,68.43
2022-12-01T03:53:49.754Z,64.85
2022-12-01T03:56:46.961Z,65.90
2022-12-01T03:59:38.931Z,69.57
2022-12-01T04:02:29.167Z,59.90
2022-12-01T04:05:23.834Z,63.78
2022-12-01T04:08:14.524Z,61.63
2022-12-01T04:11:28.212Z,58.05
2022-12-01T04:14:20.994Z,51.80
2022-12-01T04:17:10.570Z,51.92
2022-12-01T04:20:00.038Z,53.60
2022-12-01T04:22:49.764Z,53.15
2022-12-01T04:25:39.166Z,58.45
2022-12-01T04:28:28.936Z,64.30
2022-12-01T04:31:19.694Z,61.38
2022-12-01T04:34:09.610Z,67.65
2022-12-01T04:36:58.835Z,66.72
2022-12-01T04:39:48.518Z,56.45
2022-12-01T04:42:38.177Z,41.83
2022-12-01T04:45:27.498Z,36.40
2022-12-01T04:48:18.224Z,32.10
2022-12-01T04:51:09.631Z,31.45
2022-12-01T04:53:59.066Z,32.38
2022-12-01T04:56:48.333Z,26.95
2022-12-01T04:59:37.716Z,27.90
2022-12-01T05:02:27.069Z,26.80
2022-12-01T05:05:17.986Z,29.30
2022-12-01T05:08:07.542Z,34.78
2022-12-01T05:10:57.666Z,25.38
2022-12-01T05:13:48.790Z,23.73
2022-12-01T05:16:38.079Z,26.08
2022-12-01T05:19:45.200Z,30.48
2022-12-01T05:23:03.743Z,27.17
2022-12-01T05:25:45.209Z,30.27
2022-12-01T05:28:34.825Z,27.40
2022-12-01T05:31:24.186Z,26.42
2022-12-01T05:34:13.819Z,28.30
2022-12-01T05:37:03.109Z,27.92
2022-12-01T05:39:53.788Z,26.05
2022-12-01T05:42:43.095Z,29.55
2022-12-01T05:45:32.511Z,27.15
2022-12-01T05:48:21.911Z,23.65
2022-12-01T05:51:13.128Z,28.05
2022-12-01T05:54:02.593Z,26.65
2022-12-01T05:56:53.342Z,25.77
2022-12-01T05:59:42.831Z,24.73
2022-12-01T06:02:32.082Z,27.88
2022-12-01T06:05:21.780Z,25.95
2022-12-01T06:08:11.061Z,28.40
2022-12-01T06:11:00.458Z,26.30
2022-12-01T06:13:51.425Z,27.33
2022-12-01T06:16:40.812Z,28.00
2022-12-01T06:19:31.408Z,29.08
2022-12-01T06:22:20.783Z,29.30
2022-12-01T06:25:11.383Z,31.33
2022-12-01T06:28:01.241Z,33.85
2022-12-01T06:30:52.049Z,33.45
2022-12-01T06:33:41.455Z,36.33
2022-12-01T06:36:30.686Z,41.28
2022-12-01T06:39:20.244Z,39.55
2022-12-01T06:42:09.529Z,46.70
2022-12-01T06:44:58.928Z,45.25
2022-12-01T06:47:50.801Z,46.42
2022-12-01T06:50:40.498Z,49.60
2022-12-01T06:53:30.148Z,47.83
2022-12-01T06:56:19.420Z,49.47
2022-12-01T06:59:09.019Z,50.92
2022-12-01T07:01:58.817Z,50.08
2022-12-01T07:04:49.784Z,53.10
2022-12-01T07:07:40.473Z,50.40
2022-12-01T07:10:30.268Z,50.88
2022-12-01T07:13:19.573Z,48.30
2022-12-01T07:16:10.602Z,47.88
2022-12-01T07:19:00.339Z,49.83
2022-12-01T07:21:51.032Z,49.13
2022-12-01T07:24:40.268Z,48.15
2022-12-01T07:27:32.165Z,48.40
2022-12-01T07:30:26.875Z,46.42
2022-12-01T07:33:17.786Z,54.20
2022-12-01T07:36:09.130Z,49.72
2022-12-01T07:38:59.931Z,50.45
2022-12-01T07:41:49.228Z,55.67
2022-12-01T07:44:38.524Z,53.63
2022-12-01T07:47:27.893Z,54.22
2022-12-01T07:50:17.368Z,54.38
2022-12-01T07:53:06.978Z,55.47
2022-12-01T07:55:57.587Z,54.03
2022-12-01T07:58:47.023Z,56.30
2022-12-01T08:01:40.281Z,58.22
2022-12-01T08:04:33.607Z,59.60
2022-12-01T08:07:26.022Z,60.17
2022-12-01T08:10:17.897Z,59.35
2022-12-01T08:13:11.716Z,56.65
2022-12-01T08:16:06.471Z,58.42
2022-12-01T08:18:56.182Z,54.75
2022-12-01T08:21:45.648Z,55.97
2022-12-01T08:24:34.887Z,55.83
2022-12-01T08:27:24.235Z,55.88
2022-12-01T08:30:16.074Z,58.00
2022-12-01T08:33:05.545Z,58.15
2022-12-01T08:35:55.000Z,54.85
2022-12-01T08:38:45.807Z,59.15
2022-12-01T08:41:35.147Z,57.83
2022-12-01T08:44:24.492Z,60.20
2022-12-01T08:47:18.709Z,57.97
2022-12-01T08:50:09.685Z,56.42
2022-12-01T08:52:58.887Z,56.00
2022-12-01T08:55:48.244Z,60.70
2022-12-01T08:58:37.516Z,59.35
2022-12-01T09:01:27.154Z,60.47
2022-12-01T09:04:17.881Z,58.00
2022-12-01T09:07:07.269Z,59.53
2022-12-01T09:09:56.579Z,58.15
2022-12-01T09:12:45.811Z,55.47
2022-12-01T09:15:35.327Z,59.10
2022-12-01T09:18:24.925Z,61.53
2022-12-01T09:21:30.470Z,57.33
2022-12-01T09:24:19.803Z,57.75
2022-12-01T09:27:10.563Z,56.60
2022-12-01T09:29:59.867Z,54.10
2022-12-01T09:32:49.159Z,47.42
2022-12-01T09:35:38.773Z,45.90
2022-12-01T09:38:31.332Z,38.72
2022-12-01T09:41:25.662Z,33.67
2022-12-01T09:44:23.738Z,32.03
2022-12-01T09:47:19.458Z,33.33
2022-12-01T09:50:14.604Z,31.15
2022-12-01T09:53:08.579Z,31.48
2022-12-01T09:56:06.098Z,32.38
2022-12-01T09:59:02.688Z,32.80
2022-12-01T10:01:59.427Z,31.85
2022-12-01T10:04:52.177Z,32.92
2022-12-01T10:07:49.952Z,34.50
2022-12-01T10:10:44.308Z,30.23
2022-12-01T10:13:35.879Z,32.20
2022-12-01T10:16:31.699Z,33.30
2022-12-01T10:19:28.045Z,33.17
2022-12-01T10:22:57.995Z,31.88
2022-12-01T10:25:58.150Z,28.05
2022-12-01T10:29:17.630Z,27.45
2022-12-01T10:32:17.906Z,28.25
2022-12-01T10:35:07.832Z,28.55
2022-12-01T10:38:00.565Z,26.48
2022-12-01T10:40:51.755Z,26.98
2022-12-01T10:43:45.435Z,26.15
2022-12-01T10:46:44.822Z,26.20
2022-12-01T10:49:39.865Z,26.52
2022-12-01T10:52:39.639Z,26.52
2022-12-01T10:55:33.164Z,24.60
2022-12-01T10:58:22.735Z,25.77
2022-12-01T11:01:21.668Z,24.13
2022-12-01T11:04:45.508Z,22.92
2022-12-01T11:07:43.187Z,27.48
2022-12-01T11:10:34.871Z,29.80
2022-12-01T11:13:29.182Z,22.48
2022-12-01T11:16:41.002Z,24.63
2022-12-01T11:19:35.177Z,24.05
2022-12-01T11:22:28.616Z,27.08
2022-12-01T11:25:22.944Z,27.75
2022-12-01T11:28:22.059Z,23.48
2022-12-01T11:31:13.090Z,22.95
2022-12-01T11:34:02.629Z,23.40
2022-12-01T11:36:57.138Z,21.23
2022-12-01T11:39:48.400Z,23.88
2022-12-01T11:42:40.333Z,24.02
2022-12-01T11:45:33.978Z,29.45
2022-12-01T11:48:27.616Z,31.50
2022-12-01T11:51:30.024Z,32.15
2022-12-01T11:54:24.259Z,31.20
2022-12-01T11:57:33.582Z,32.13
2022-12-01T12:00:26.477Z,33.03
2022-12-01T12:03:26.118Z,27.13
2022-12-01T12:06:40.483Z,28.85
2022-12-01T12:09:47.957Z,29.40
2022-12-01T12:13:00.751Z,28.08
2022-12-01T12:16:02.250Z,29.77
2022-12-01T12:19:12.204Z,32.92
2022-12-01T12:22:17.843Z,30.35
2022-12-01T12:25:25.445Z,26.65
2022-12-01T12:28:50.826Z,29.35
2022-12-01T12:31:53.216Z,24.63
2022-12-01T12:34:56.500Z,28.17
2022-12-01T12:40:52.918Z,23.20
2022-12-01T12:43:58.404Z,32.03
2022-12-01T12:47:05.649Z,23.13
2022-12-01T12:50:08.535Z,26.88
2022-12-01T12:53:03.915Z,26.60
2022-12-01T12:56:00.104Z,23.27
2022-12-01T12:58:58.393Z,25.30
2022-12-01T13:01:55.279Z,24.17
2022-12-01T13:04:52.285Z,20.30
2022-12-01T13:07:48.661Z,25.85
2022-12-01T13:10:44.353Z,23.60
2022-12-01T13:13:41.614Z,21.77
2022-12-01T13:16:36.552Z,27.02
2022-12-01T13:19:32.422Z,21.60
2022-12-01T13:22:30.540Z,23.45
2022-12-01T13:25:28.759Z,22.42
2022-12-01T13:28:23.928Z,24.63
2022-12-01T13:31:17.370Z,22.48
2022-12-01T13:34:07.875Z,22.05
2022-12-01T13:36:57.754Z,23.08
2022-12-01T13:39:47.213Z,22.48
2022-12-01T13:42:38.152Z,24.25
2022-12-01T13:45:33.980Z,20.70
2022-12-01T13:48:51.810Z,25.10
2022-12-01T13:52:33.307Z,22.90
2022-12-01T13:55:30.717Z,24.45
2022-12-01T13:58:44.171Z,21.67
2022-12-01T14:02:08.439Z,21.70
2022-12-01T14:05:44.906Z,20.83
2022-12-01T14:08:37.823Z,19.33
2022-12-01T14:11:29.830Z,22.23
2022-12-01T14:14:26.184Z,31.23
2022-12-01T14:17:29.134Z,23.30
2022-12-01T14:20:23.485Z,22.27
2022-12-01T14:23:24.321Z,21.83
2022-12-01T14:26:18.023Z,24.42
2022-12-01T14:29:36.105Z,20.10
2022-12-01T14:32:25.952Z,27.52
2022-12-01T14:35:16.123Z,21.67
2022-12-01T14:38:08.450Z,24.73
2022-12-01T14:40:57.915Z,20.97
2022-12-01T14:44:06.749Z,21.90
2022-12-01T14:47:01.601Z,18.70
2022-12-01T14:50:03.125Z,28.67
2022-12-01T14:52:58.723Z,21.42
2022-12-01T14:55:56.345Z,55.42
2022-12-01T14:58:55.084Z,19.13
2022-12-01T15:01:44.506Z,17.58
2022-12-01T15:04:34.534Z,19.23
2022-12-01T15:07:24.423Z,17.98
2022-12-01T15:10:20.649Z,17.52
2022-12-01T15:13:28.037Z,41.22
2022-12-01T15:16:20.786Z,17.23
2022-12-01T15:19:25.345Z,17.48
2022-12-01T15:22:18.064Z,17.25
2022-12-01T15:25:12.484Z,17.88
2022-12-01T15:28:14.370Z,17.55
2022-12-01T15:31:14.543Z,17.63
2022-12-01T15:34:04.341Z,19.42
2022-12-01T15:36:54.748Z,19.85
2022-12-01T15:39:48.407Z,21.05
2022-12-01T15:42:39.649Z,23.58
2022-12-01T15:45:29.102Z,19.83
2022-12-01T15:48:32.035Z,18.83
2022-12-01T15:51:28.323Z,19.77
2022-12-01T15:54:22.580Z,20.65
2022-12-01T15:57:20.243Z,21.52
2022-12-01T16:00:21.129Z,21.02
2022-12-01T16:03:15.840Z,29.73
2022-12-01T16:06:12.790Z,25.50
2022-12-01T16:09:05.256Z,26.10
2022-12-01T16:12:24.164Z,24.20
2022-12-01T16:15:23.442Z,23.10
2022-12-01T16:18:30.782Z,24.15
2022-12-01T16:21:21.973Z,26.48
2022-12-01T16:24:17.209Z,25.42
2022-12-01T16:27:08.797Z,31.27
2022-12-01T16:30:02.181Z,34.45
2022-12-01T16:32:52.251Z,32.40
2022-12-01T16:35:41.604Z,28.55
2022-12-01T16:38:32.361Z,32.28
2022-12-01T16:41:37.698Z,30.25
2022-12-01T16:44:29.076Z,26.80
2022-12-01T16:47:21.663Z,29.98
2022-12-01T16:50:15.326Z,32.40
2022-12-01T16:53:04.753Z,32.50
2022-12-01T16:55:57.784Z,27.90
2022-12-01T16:58:47.071Z,24.50
2022-12-01T17:01:36.301Z,25.85
2022-12-01T17:04:25.931Z,26.75
2022-12-01T17:07:15.283Z,32.67
2022-12-01T17:10:05.010Z,38.05
2022-12-01T17:12:56.092Z,36.28
2022-12-01T17:15:47.866Z,37.95
2022-12-01T17:18:38.952Z,43.60
2022-12-01T17:21:28.585Z,45.15
2022-12-01T17:24:19.319Z,46.70
2022-12-01T17:27:08.925Z,53.03
2022-12-01T17:30:00.252Z,64.68
2022-12-01T17:32:49.587Z,56.38
2022-12-01T17:35:40.004Z,50.70
2022-12-01T17:38:29.370Z,44.75
2022-12-01T17:41:22.050Z,44.92
2022-12-01T17:44:11.573Z,40.55
2022-12-01T17:47:02.231Z,42.92
2022-12-01T17:49:51.637Z,41.75
2022-12-01T17:52:41.186Z,42.80
2022-12-01T17:55:30.459Z,44.42
2022-12-01T17:58:21.711Z,38.65
2022-12-01T18:01:16.930Z,38.00
2022-12-01T18:04:08.031Z,40.55
2022-12-01T18:06:57.580Z,38.28
2022-12-01T18:09:47.028Z,39.70
2022-12-01T18:12:36.339Z,42.03
2022-12-01T18:15:33.261Z,41.78
2022-12-01T18:18:24.050Z,39.38
2022-12-01T18:21:17.336Z,37.80
2022-12-01T18:24:09.092Z,39.83
2022-12-01T18:26:58.686Z,37.72
2022-12-01T18:29:48.580Z,47.75
2022-12-01T18:32:38.046Z,63.83
2022-12-01T18:35:31.763Z,50.55
2022-12-01T18:38:25.034Z,42.25
2022-12-01T18:41:18.842Z,35.80
2022-12-01T18:44:08.558Z,39.08
2022-12-01T18:46:59.084Z,39.83
2022-12-01T18:49:49.117Z,40.13
2022-12-01T18:52:38.780Z,39.85
2022-12-01T18:55:29.877Z,44.35
2022-12-01T18:58:19.176Z,44.53
2022-12-01T19:01:21.677Z,44.72
2022-12-01T19:04:11.813Z,43.40
2022-12-01T19:07:01.256Z,47.67
2022-12-01T19:09:51.232Z,50.78
2022-12-01T19:12:42.526Z,58.33
2022-12-01T19:15:31.982Z,64.95
2022-12-01T19:18:21.305Z,53.20
2022-12-01T19:21:13.947Z,61.40
2022-12-01T19:24:03.594Z,59.95
2022-12-01T19:26:53.100Z,54.90
2022-12-01T19:29:44.006Z,54.22
2022-12-01T19:32:34.179Z,48.17
2022-12-01T19:35:24.041Z,45.88
2022-12-01T19:38:13.606Z,51.83
2022-12-01T19:41:03.762Z,52.70
2022-12-01T19:43:54.126Z,43.25
2022-12-01T19:46:46.149Z,39.63
2022-12-01T19:49:35.651Z,40.15
2022-12-01T19:52:25.187Z,35.45
2022-12-01T19:55:14.476Z,33.67
2022-12-01T19:58:04.416Z,40.13
2022-12-01T20:00:53.751Z,41.97
2022-12-01T20:03:47.096Z,41.03
2022-12-01T20:06:38.849Z,42.78
2022-12-01T20:09:28.271Z,42.38
2022-12-01T20:12:20.001Z,46.63
2022-12-01T20:15:10.834Z,45.03
2022-12-01T20:18:00.188Z,43.33
2022-12-01T20:20:50.878Z,42.63
2022-12-01T20:23:40.247Z,41.70
2022-12-01T20:26:32.318Z,38.40
2022-12-01T20:29:25.840Z,35.28
2022-12-01T20:32:19.326Z,38.65
2022-12-01T20:35:12.725Z,38.88
2022-12-01T20:38:03.463Z,36.65
2022-12-01T20:40:53.599Z,41.03
2022-12-01T20:43:42.986Z,42.58
2022-12-01T20:46:32.617Z,43.00
2022-12-01T20:49:22.533Z,44.38
2022-12-01T20:52:12.000Z,48.30
2022-12-01T20:55:02.672Z,45.92
2022-12-01T20:57:52.261Z,45.00
2022-12-01T21:00:44.384Z,45.90
2022-12-01T21:03:33.780Z,46.88
2022-12-01T21:06:23.918Z,46.03
2022-12-01T21:09:15.077Z,41.40
2022-12-01T21:12:32.335Z,43.05
2022-12-01T21:15:28.483Z,37.80
2022-12-01T21:18:23.936Z,40.72
2022-12-01T21:21:25.150Z,39.83
2022-12-01T21:24:17.209Z,37.25
2022-12-01T21:27:15.871Z,37.30
2022-12-01T21:30:16.161Z,37.78
2022-12-01T21:33:24.118Z,37.40
2022-12-01T21:36:18.233Z,36.65
2022-12-01T21:39:15.600Z,33.88
2022-12-01T21:42:19.996Z,33.97
2022-12-01T21:45:20.423Z,30.08
2022-12-01T21:48:17.971Z,32.63
2022-12-01T21:51:17.596Z,33.85
2022-12-01T21:54:13.650Z,35.00
2022-12-01T21:57:03.220Z,31.52
2022-12-01T21:59:59.119Z,31.20
2022-12-01T22:02:53.620Z,34.38
2022-12-01T22:06:07.126Z,29.05
2022-12-01T22:08:59.823Z,34.40
2022-12-01T22:11:54.418Z,30.92
2022-12-01T22:14:43.805Z,30.73
2022-12-01T22:17:36.928Z,32.88
2022-12-01T22:23:16.043Z,21.80
2022-12-01T22:26:19.925Z,27.45
2022-12-01T22:29:27.758Z,28.00
2022-12-01T22:32:56.890Z,28.73
2022-12-01T22:35:48.436Z,30.42
2022-12-01T22:38:39.786Z,31.67
2022-12-01T22:41:29.860Z,29.48
2022-12-01T22:44:20.198Z,31.83
2022-12-01T22:47:22.336Z,35.17
2022-12-01T22:50:27.687Z,32.50
2022-12-01T22:53:20.305Z,33.08
2022-12-01T22:56:28.746Z,34.47
2022-12-01T22:59:21.745Z,34.60
2022-12-01T23:02:21.400Z,35.00
2022-12-01T23:05:26.091Z,35.10
2022-12-01T23:08:21.321Z,32.92
2022-12-01T23:11:13.194Z,36.20
2022-12-01T23:14:02.652Z,37.80
2022-12-01T23:16:57.941Z,39.53
2022-12-01T23:19:47.772Z,35.70
2022-12-01T23:22:38.784Z,38.20
2022-12-01T23:25:29.276Z,38.58
2022-12-01T23:28:19.863Z,36.08
2022-12-01T23:31:11.278Z,39.67
2022-12-01T23:34:03.278Z,38.28
2022-12-01T23:36:59.932Z,41.13
2022-12-01T23:39:52.165Z,38.17
2022-12-01T23:42:41.559Z,38.25
2022-12-01T23:45:31.410Z,33.80
2022-12-01T23:48:27.070Z,36.88
2022-12-01T23:51:23.467Z,34.08
2022-12-01T23:54:17.998Z,35.88
2022-12-01T23:57:19.538Z,35.45
